createdAt,value
2022-12-01T00:01:32.177Z,-14.06
2022-12-01T00:04:00.395Z,-14.06
2022-12-01T00:06:28.615Z,-14.05
2022-12-01T00:09:19.535Z,-14.09
2022-12-01T00:11:50.522Z,-14.00
2022-12-01T00:14:19.526Z,-13.95
2022-12-01T00:16:47.875Z,-14.01
2022-12-01T00:19:16.169Z,-14.10
2022-12-01T00:21:44.480Z,-14.01
2022-12-01T00:24:14.502Z,-14.00
2022-12-01T00:26:42.732Z,-14.24
2022-12-01T00:29:12.364Z,-14.33
2022-12-01T00:31:40.574Z,-14.28
2022-12-01T00:34:11.527Z,-14.22
2022-12-01T00:36:40.570Z,-14.16
2022-12-01T00:39:08.873Z,-14.13
2022-12-01T00:41:37.063Z,-14.28
2022-12-01T00:44:06.063Z,-14.43
2022-12-01T00:46:35.945Z,-14.38
2022-12-01T00:49:04.449Z,-14.20
2022-12-01T00:51:33.079Z,-14.20
2022-12-01T00:54:01.249Z,-14.19
2022-12-01T00:56:29.488Z,-14.24
2022-12-01T00:58:57.973Z,-14.40
2022-12-01T01:01:26.303Z,-14.44
2022-12-01T01:03:55.937Z,-14.38
2022-12-01T01:06:24.232Z,-14.20
2022-12-01T01:08:52.443Z,-14.33
2022-12-01T01:11:20.721Z,-14.43
2022-12-01T01:13:49.016Z,-14.49
2022-12-01T01:16:20.710Z,-14.41
2022-12-01T01:18:49.867Z,-14.39
2022-12-01T01:21:21.137Z,-14.42
2022-12-01T01:23:49.579Z,-14.31
2022-12-01T01:26:19.554Z,-14.41
2022-12-01T01:28:48.129Z,-14.46
2022-12-01T01:31:18.769Z,-14.32
2022-12-01T01:33:47.635Z,-14.29
2022-12-01T01:36:17.115Z,-14.28
2022-12-01T01:38:47.736Z,-14.50
2022-12-01T01:41:16.459Z,-14.31
2022-12-01T01:43:46.773Z,-14.41
2022-12-01T01:46:17.115Z,-14.58
2022-12-01T01:48:47.718Z,-14.63
2022-12-01T01:51:17.179Z,-14.39
2022-12-01T01:53:47.383Z,-14.31
2022-12-01T01:56:15.591Z,-14.22
2022-12-01T01:58:44.096Z,-14.33
2022-12-01T02:01:12.502Z,-14.36
2022-12-01T02:03:42.190Z,-14.44
2022-12-01T02:06:11.357Z,-14.43
2022-12-01T02:08:39.561Z,-14.51
2022-12-01T02:11:48.707Z,-14.59
2022-12-01T02:14:42.996Z,-14.49
2022-12-01T02:17:18.997Z,-14.23
2022-12-01T02:20:11.949Z,-14.23
2022-12-01T02:22:48.268Z,-14.18
2022-12-01T02:25:23.341Z,-14.12
2022-12-01T02:28:07.804Z,-14.19
2022-12-01T02:30:40.672Z,-14.28
2022-12-01T02:33:14.527Z,-14.45
2022-12-01T02:35:48.061Z,-14.60
2022-12-01T02:38:21.692Z,-14.68
2022-12-01T02:40:53.840Z,-14.38
2022-12-01T02:43:27.573Z,-14.23
2022-12-01T02:46:00.582Z,-14.62
2022-12-01T02:48:29.736Z,-14.74
2022-12-01T02:51:00.173Z,-14.86
2022-12-01T02:53:29.375Z,-14.66
2022-12-01T02:56:00.087Z,-14.52
2022-12-01T02:58:28.294Z,-14.43
2022-12-01T03:01:14.180Z,-14.62
2022-12-01T03:03:52.907Z,-14.68
2022-12-01T03:06:25.988Z,-14.59
2022-12-01T03:08:54.352Z,-14.76
2022-12-01T03:11:30.663Z,-14.82
2022-12-01T03:14:09.664Z,-14.94
2022-12-01T03:16:44.392Z,-14.99
2022-12-01T03:19:15.674Z,-14.86
2022-12-01T03:21:48.144Z,-14.93
2022-12-01T03:24:19.600Z,-15.02
2022-12-01T03:26:49.880Z,-15.00
2022-12-01T03:29:21.156Z,-15.03
2022-12-01T03:31:54.616Z,-14.98
2022-12-01T03:34:27.197Z,-14.92
2022-12-01T03:36:59.336Z,-15.01
2022-12-01T03:39:32.861Z,-15.07
2022-12-01T03:42:05.078Z,-15.04
2022-12-01T03:44:38.261Z,-15.07
2022-12-01T03:47:10.708Z,-15.00
2022-12-01T03:49:39.643Z,-14.82
2022-12-01T03:52:15.720Z,-14.75
2022-12-01T03:54:53.379Z,-14.78
2022-12-01T03:57:26.723Z,-15.10
2022-12-01T03:59:55.410Z,-15.11
2022-12-01T04:02:28.045Z,-14.93
2022-12-01T04:04:56.410Z,-15.02
2022-12-01T04:07:24.687Z,-15.12
2022-12-01T04:09:53.017Z,-15.17
2022-12-01T04:12:34.072Z,-15.19
2022-12-01T04:15:03.604Z,-15.29
2022-12-01T04:17:34.428Z,-15.40
2022-12-01T04:20:03.358Z,-15.31
2022-12-01T04:22:32.533Z,-15.30
2022-12-01T04:25:01.129Z,-15.28
2022-12-01T04:27:29.480Z,-15.15
2022-12-01T04:29:57.793Z,-15.03
2022-12-01T04:32:26.189Z,-15.00
2022-12-01T04:34:55.932Z,-15.13
2022-12-01T04:37:24.294Z,-15.18
2022-12-01T04:39:52.654Z,-15.15
2022-12-01T04:42:21.061Z,-15.11
2022-12-01T04:44:49.369Z,-15.24
2022-12-01T04:47:17.581Z,-15.21
2022-12-01T04:49:45.996Z,-15.18
2022-12-01T04:52:16.012Z,-15.12
2022-12-01T04:54:44.665Z,-14.83
2022-12-01T04:57:13.884Z,-14.71
2022-12-01T04:59:42.153Z,-14.87
2022-12-01T05:02:10.494Z,-14.93
2022-12-01T05:04:41.692Z,-14.95
2022-12-01T05:07:10.508Z,-14.98
2022-12-01T05:09:40.124Z,-15.00
2022-12-01T05:12:08.592Z,-15.17
2022-12-01T05:14:36.889Z,-15.22
2022-12-01T05:17:05.028Z,-15.15
2022-12-01T05:19:50.732Z,-15.12
2022-12-01T05:22:36.431Z,-15.29
2022-12-01T05:25:09.657Z,-15.24
2022-12-01T05:27:38.416Z,-15.17
2022-12-01T05:30:07.853Z,-15.16
2022-12-01T05:32:36.296Z,-15.24
2022-12-01T05:35:05.419Z,-15.34
2022-12-01T05:37:34.785Z,-15.30
2022-12-01T05:40:03.148Z,-15.15
2022-12-01T05:42:33.116Z,-15.02
2022-12-01T05:45:01.624Z,-14.76
2022-12-01T05:47:31.904Z,-14.70
2022-12-01T05:50:05.226Z,-14.62
2022-12-01T05:52:35.000Z,-14.54
2022-12-01T05:55:03.245Z,-14.55
2022-12-01T05:57:36.736Z,-14.75
2022-12-01T06:00:06.933Z,-14.58
2022-12-01T06:02:35.377Z,-14.61
2022-12-01T06:05:03.787Z,-14.62
2022-12-01T06:07:32.517Z,-14.51
2022-12-01T06:10:00.703Z,-14.48
2022-12-01T06:12:29.227Z,-14.47
2022-12-01T06:14:58.834Z,-14.53
2022-12-01T06:17:27.089Z,-14.62
2022-12-01T06:19:55.401Z,-14.46
2022-12-01T06:22:23.568Z,-14.30
2022-12-01T06:24:51.792Z,-14.27
2022-12-01T06:27:20.120Z,-14.32
2022-12-01T06:29:49.706Z,-14.13
2022-12-01T06:32:19.819Z,-13.98
2022-12-01T06:34:48.105Z,-13.99
2022-12-01T06:37:16.874Z,-13.95
2022-12-01T06:39:45.157Z,-13.73
2022-12-01T06:42:13.500Z,-13.85
2022-12-01T06:44:41.673Z,-13.81
2022-12-01T06:47:09.837Z,-13.74
2022-12-01T06:49:39.583Z,-13.59
2022-12-01T06:52:07.764Z,-13.46
2022-12-01T06:54:37.593Z,-13.47
2022-12-01T06:57:05.932Z,-13.58
2022-12-01T06:59:34.389Z,-13.35
2022-12-01T07:02:03.215Z,-13.24
2022-12-01T07:04:32.981Z,-13.13
2022-12-01T07:07:02.590Z,-13.06
2022-12-01T07:09:30.837Z,-13.02
2022-12-01T07:11:59.293Z,-13.07
2022-12-01T07:14:28.087Z,-12.98
2022-12-01T07:16:56.365Z,-12.76
2022-12-01T07:19:24.842Z,-12.69
2022-12-01T07:21:53.092Z,-12.64
2022-12-01T07:24:22.687Z,-12.53
2022-12-01T07:26:50.952Z,-12.54
2022-12-01T07:29:19.330Z,-12.61
2022-12-01T07:31:47.521Z,-12.74
2022-12-01T07:34:16.365Z,-12.70
2022-12-01T07:36:45.092Z,-12.68
2022-12-01T07:39:13.410Z,-12.50
2022-12-01T07:41:43.193Z,-12.26
2022-12-01T07:44:12.007Z,-12.35
2022-12-01T07:46:40.251Z,-12.29
2022-12-01T07:49:10.792Z,-12.33
2022-12-01T07:51:39.017Z,-12.22
2022-12-01T07:54:07.895Z,-12.38
2022-12-01T07:56:36.333Z,-12.01
2022-12-01T07:59:06.069Z,-11.78
2022-12-01T08:01:34.393Z,-11.60
2022-12-01T08:04:02.775Z,-11.65
2022-12-01T08:06:31.805Z,-11.75
2022-12-01T08:09:00.677Z,-11.60
2022-12-01T08:11:30.698Z,-11.30
2022-12-01T08:13:59.067Z,-11.37
2022-12-01T08:16:28.601Z,-11.19
2022-12-01T08:18:56.913Z,-11.31
2022-12-01T08:21:25.638Z,-11.43
2022-12-01T08:23:55.208Z,-11.43
2022-12-01T08:26:24.752Z,-11.04
2022-12-01T08:28:53.284Z,-11.06
2022-12-01T08:31:23.232Z,-10.83
2022-12-01T08:33:53.159Z,-10.77
2022-12-01T08:36:21.871Z,-10.93
2022-12-01T08:38:52.036Z,-11.06
2022-12-01T08:41:21.169Z,-11.10
2022-12-01T08:43:58.505Z,-10.80
2022-12-01T08:46:28.353Z,-10.43
2022-12-01T08:48:58.320Z,-10.17
2022-12-01T08:51:27.282Z,-10.02
2022-12-01T08:53:57.239Z,-10.28
2022-12-01T08:56:27.373Z,-10.61
2022-12-01T08:58:56.011Z,-10.60
2022-12-01T09:01:25.918Z,-10.39
2022-12-01T09:04:06.103Z,-10.31
2022-12-01T09:06:40.307Z,-10.41
2022-12-01T09:09:08.820Z,-10.07
2022-12-01T09:11:37.690Z,-9.91
2022-12-01T09:14:06.138Z,-9.86
2022-12-01T09:16:34.518Z,-9.85
2022-12-01T09:19:02.933Z,-9.75
2022-12-01T09:21:32.740Z,-10.08
2022-12-01T09:24:02.739Z,-9.83
2022-12-01T09:26:31.069Z,-9.73
2022-12-01T09:29:01.496Z,-9.75
2022-12-01T09:31:29.835Z,-9.79
2022-12-01T09:33:59.391Z,-9.80
2022-12-01T09:36:30.470Z,-9.67
2022-12-01T09:38:58.963Z,-9.54
2022-12-01T09:41:32.825Z,-9.38
2022-12-01T09:44:06.080Z,-9.43
2022-12-01T09:46:35.935Z,-9.44
2022-12-01T09:49:05.487Z,-9.62
2022-12-01T09:51:36.396Z,-9.93
2022-12-01T09:54:05.101Z,-9.98
2022-12-01T09:56:41.008Z,-10.06
2022-12-01T09:59:12.305Z,-10.09
2022-12-01T10:01:44.469Z,-10.48
2022-12-01T10:04:15.369Z,-10.17
2022-12-01T10:06:47.784Z,-10.08
2022-12-01T10:09:23.462Z,-10.06
2022-12-01T10:11:56.628Z,-10.04
2022-12-01T10:14:26.044Z,-9.85
2022-12-01T10:17:03.748Z,-9.80
2022-12-01T10:19:36.368Z,-9.80
2022-12-01T10:22:17.540Z,-9.67
2022-12-01T10:24:55.020Z,-9.69
2022-12-01T10:27:40.315Z,-9.79
2022-12-01T10:30:11.580Z,-9.75
2022-12-01T10:32:47.984Z,-9.85
2022-12-01T10:35:18.444Z,-9.72
2022-12-01T10:37:47.597Z,-9.58
2022-12-01T10:40:18.504Z,-9.68
2022-12-01T10:42:49.985Z,-9.68
2022-12-01T10:45:23.264Z,-9.59
2022-12-01T10:48:06.052Z,-9.68
2022-12-01T10:50:34.514Z,-9.58
2022-12-01T10:53:03.156Z,-9.68
2022-12-01T10:55:34.017Z,-9.70
2022-12-01T10:58:09.401Z,-9.66
2022-12-01T11:03:32.035Z,-9.53
2022-12-01T11:06:02.068Z,-9.44
2022-12-01T11:08:38.832Z,-9.41
2022-12-01T11:11:08.205Z,-9.48
2022-12-01T11:13:38.426Z,-9.53
2022-12-01T11:16:08.680Z,-9.50
2022-12-01T11:18:38.837Z,-9.50
2022-12-01T11:21:10.726Z,-9.36
2022-12-01T11:23:40.319Z,-9.48
2022-12-01T11:26:14.704Z,-9.45
2022-12-01T11:28:53.499Z,-9.43
2022-12-01T11:31:24.405Z,-9.47
2022-12-01T11:33:54.056Z,-9.39
2022-12-01T11:36:26.739Z,-9.33
2022-12-01T11:38:58.175Z,-9.39
2022-12-01T11:41:30.672Z,-9.42
2022-12-01T11:44:02.076Z,-9.59
2022-12-01T11:46:34.951Z,-9.71
2022-12-01T11:49:03.192Z,-9.73
2022-12-01T11:51:37.915Z,-9.85
2022-12-01T11:54:09.108Z,-9.77
2022-12-01T11:56:38.155Z,-9.89
2022-12-01T11:59:13.102Z,-9.81
2022-12-01T12:02:03.778Z,-9.81
2022-12-01T12:04:46.189Z,-9.75
2022-12-01T12:07:20.561Z,-9.89
2022-12-01T12:10:01.350Z,-9.83
2022-12-01T12:12:41.786Z,-9.87
2022-12-01T12:15:19.504Z,-9.86
2022-12-01T12:17:57.976Z,-9.89
2022-12-01T12:20:37.215Z,-9.91
2022-12-01T12:23:16.802Z,-9.98
2022-12-01T12:25:54.537Z,-10.02
2022-12-01T12:28:33.772Z,-10.05
2022-12-01T12:31:10.680Z,-10.04
2022-12-01T12:34:11.644Z,-10.07
2022-12-01T12:36:45.663Z,-10.19
2022-12-01T12:39:27.633Z,-10.18
2022-12-01T12:41:57.433Z,-10.21
2022-12-01T12:44:45.098Z,-10.26
2022-12-01T12:47:24.461Z,-10.30
2022-12-01T12:49:59.539Z,-10.40
2022-12-01T12:52:33.362Z,-10.52
2022-12-01T12:55:06.322Z,-10.47
2022-12-01T12:57:36.958Z,-10.63
2022-12-01T13:00:08.515Z,-10.72
2022-12-01T13:02:42.883Z,-10.75
2022-12-01T13:05:16.556Z,-10.78
2022-12-01T13:07:48.010Z,-10.80
2022-12-01T13:10:25.507Z,-10.87
2022-12-01T13:12:58.230Z,-10.89
2022-12-01T13:15:26.844Z,-10.97
2022-12-01T13:18:00.497Z,-11.01
2022-12-01T13:20:32.364Z,-11.13
2022-12-01T13:23:02.556Z,-11.27
2022-12-01T13:25:34.598Z,-11.16
2022-12-01T13:28:03.739Z,-11.16
2022-12-01T13:30:31.965Z,-11.20
2022-12-01T13:33:03.815Z,-11.19
2022-12-01T13:35:34.712Z,-11.07
2022-12-01T13:38:22.347Z,-11.19
2022-12-01T13:40:50.886Z,-11.24
2022-12-01T13:43:21.221Z,-11.24
2022-12-01T13:45:50.578Z,-11.31
2022-12-01T13:48:31.456Z,-11.45
2022-12-01T13:51:01.762Z,-11.26
2022-12-01T13:53:35.227Z,-11.28
2022-12-01T13:56:29.437Z,-11.30
2022-12-01T13:58:57.640Z,-11.24
2022-12-01T14:01:46.962Z,-11.42
2022-12-01T14:04:31.389Z,-11.40
2022-12-01T14:07:24.542Z,-11.43
2022-12-01T14:09:54.094Z,-11.44
2022-12-01T14:12:25.406Z,-11.44
2022-12-01T14:14:56.355Z,-11.50
2022-12-01T14:17:38.782Z,-11.42
2022-12-01T14:20:20.768Z,-11.38
2022-12-01T14:22:50.644Z,-11.60
2022-12-01T14:25:25.779Z,-11.61
2022-12-01T14:27:55.796Z,-11.56
2022-12-01T14:31:01.299Z,-11.54
2022-12-01T14:33:47.336Z,-11.58
2022-12-01T14:36:28.181Z,-11.57
2022-12-01T14:39:03.598Z,-11.56
2022-12-01T14:41:43.265Z,-11.58
2022-12-01T14:44:16.892Z,-11.69
2022-12-01T14:46:50.346Z,-11.44
2022-12-01T14:49:21.825Z,-11.44
2022-12-01T14:51:55.271Z,-11.61
2022-12-01T14:54:27.556Z,-11.49
2022-12-01T14:57:02.701Z,-11.46
2022-12-01T14:59:34.588Z,-11.54
2022-12-01T15:02:09.190Z,-11.51
2022-12-01T15:04:38.429Z,-11.62
2022-12-01T15:07:08.733Z,-11.67
2022-12-01T15:09:37.033Z,-11.53
2022-12-01T15:12:08.246Z,-11.51
2022-12-01T15:14:38.799Z,-11.61
2022-12-01T15:17:09.288Z,-11.59
2022-12-01T15:19:40.732Z,-11.50
2022-12-01T15:22:15.394Z,-11.48
2022-12-01T15:24:44.459Z,-11.51
2022-12-01T15:27:27.396Z,-11.56
2022-12-01T15:29:56.596Z,-11.47
2022-12-01T15:32:25.578Z,-11.25
2022-12-01T15:34:55.806Z,-11.22
2022-12-01T15:37:27.911Z,-11.34
2022-12-01T15:40:35.685Z,-11.45
2022-12-01T15:42:46.983Z,-11.37
2022-12-01T15:45:19.665Z,-11.26
2022-12-01T15:47:49.801Z,-11.19
2022-12-01T15:50:31.448Z,-11.07
2022-12-01T15:53:03.235Z,-11.15
2022-12-01T15:55:34.043Z,-11.20
2022-12-01T15:58:03.109Z,-11.43
2022-12-01T16:00:31.358Z,-11.78
2022-12-01T16:03:06.865Z,-11.80
2022-12-01T16:05:37.033Z,-11.73
2022-12-01T16:08:19.977Z,-11.83
2022-12-01T16:11:13.048Z,-11.84
2022-12-01T16:13:48.980Z,-11.76
2022-12-01T16:16:29.798Z,-11.75
2022-12-01T16:19:00.447Z,-11.59
2022-12-01T16:21:29.088Z,-11.60
2022-12-01T16:24:03.489Z,-11.41
2022-12-01T16:26:32.602Z,-11.56
2022-12-01T16:29:01.257Z,-11.58
2022-12-01T16:31:30.407Z,-11.69
2022-12-01T16:34:13.752Z,-11.72
2022-12-01T16:36:47.028Z,-11.67
2022-12-01T16:39:17.113Z,-11.47
2022-12-01T16:41:47.018Z,-11.58
2022-12-01T16:44:31.127Z,-11.55
2022-12-01T16:46:59.710Z,-11.42
2022-12-01T16:49:28.748Z,-11.52
2022-12-01T16:51:57.531Z,-11.50
2022-12-01T16:54:29.003Z,-11.43
2022-12-01T16:56:57.743Z,-11.39
2022-12-01T16:59:26.146Z,-11.42
2022-12-01T17:01:54.629Z,-11.43
2022-12-01T17:04:22.957Z,-11.44
2022-12-01T17:06:51.372Z,-11.51
2022-12-01T17:09:19.873Z,-11.50
2022-12-01T17:11:49.745Z,-11.47
2022-12-01T17:14:18.050Z,-11.49
2022-12-01T17:16:46.501Z,-11.61
2022-12-01T17:19:14.952Z,-11.53
2022-12-01T17:21:43.431Z,-11.53
2022-12-01T17:24:14.977Z,-11.55
2022-12-01T17:26:46.205Z,-11.52
2022-12-01T17:29:16.624Z,-11.48
2022-12-01T17:31:44.881Z,-11.45
2022-12-01T17:34:13.200Z,-11.45
2022-12-01T17:36:41.903Z,-11.55
2022-12-01T17:39:10.276Z,-11.63
2022-12-01T17:41:38.580Z,-11.58
2022-12-01T17:44:07.341Z,-11.48
2022-12-01T17:46:38.592Z,-11.54
2022-12-01T17:49:09.655Z,-11.53
2022-12-01T17:51:38.685Z,-11.52
2022-12-01T17:54:07.282Z,-11.48
2022-12-01T17:56:36.107Z,-11.50
2022-12-01T17:59:04.509Z,-11.46
2022-12-01T18:01:33.891Z,-11.42
2022-12-01T18:04:03.804Z,-11.52
2022-12-01T18:06:32.177Z,-11.62
2022-12-01T18:09:01.646Z,-11.59
2022-12-01T18:11:30.412Z,-11.52
2022-12-01T18:13:59.557Z,-11.39
2022-12-01T18:16:30.456Z,-11.41
2022-12-01T18:19:00.361Z,-11.33
2022-12-01T18:21:31.118Z,-11.40
2022-12-01T18:24:01.017Z,-11.54
2022-12-01T18:26:30.205Z,-11.62
2022-12-01T18:29:00.389Z,-11.56
2022-12-01T18:31:31.007Z,-11.63
2022-12-01T18:34:02.775Z,-11.52
2022-12-01T18:36:34.299Z,-11.47
2022-12-01T18:39:03.486Z,-11.42
2022-12-01T18:41:32.327Z,-11.47
2022-12-01T18:44:01.408Z,-11.51
2022-12-01T18:46:30.995Z,-11.53
2022-12-01T18:49:02.243Z,-11.65
2022-12-01T18:51:32.878Z,-11.61
2022-12-01T18:54:03.352Z,-11.73
2022-12-01T18:56:32.388Z,-11.70
2022-12-01T18:59:02.465Z,-11.78
2022-12-01T19:01:32.977Z,-12.04
2022-12-01T19:04:02.312Z,-11.90
2022-12-01T19:06:33.271Z,-11.76
2022-12-01T19:09:03.518Z,-11.78
2022-12-01T19:11:33.402Z,-11.65
2022-12-01T19:14:02.151Z,-11.70
2022-12-01T19:16:31.212Z,-11.73
2022-12-01T19:19:00.096Z,-11.78
2022-12-01T19:21:28.572Z,-11.76
2022-12-01T19:23:59.557Z,-11.71
2022-12-01T19:26:27.813Z,-11.79
2022-12-01T19:28:56.197Z,-11.78
2022-12-01T19:31:25.871Z,-11.86
2022-12-01T19:33:55.649Z,-11.94
2022-12-01T19:36:26.780Z,-12.05
2022-12-01T19:39:00.163Z,-11.97
2022-12-01T19:41:29.562Z,-11.99
2022-12-01T19:43:57.921Z,-11.97
2022-12-01T19:46:28.949Z,-12.05
2022-12-01T19:49:00.416Z,-12.14
2022-12-01T19:51:30.652Z,-12.22
2022-12-01T19:54:00.459Z,-12.25
2022-12-01T19:56:29.407Z,-12.34
2022-12-01T19:58:58.347Z,-12.35
2022-12-01T20:01:27.598Z,-12.45
2022-12-01T20:03:56.810Z,-12.47
2022-12-01T20:06:27.002Z,-12.40
2022-12-01T20:08:56.555Z,-12.45
2022-12-01T20:11:26.562Z,-12.58
2022-12-01T20:13:55.034Z,-12.67
2022-12-01T20:16:24.953Z,-12.67
2022-12-01T20:18:53.876Z,-12.59
2022-12-01T20:21:23.571Z,-12.64
2022-12-01T20:23:53.504Z,-12.68
2022-12-01T20:26:27.569Z,-12.80
2022-12-01T20:29:03.509Z,-12.78
2022-12-01T20:31:33.254Z,-12.92
2022-12-01T20:34:03.895Z,-12.72
2022-12-01T20:36:32.799Z,-12.68
2022-12-01T20:39:01.423Z,-12.64
2022-12-01T20:41:29.920Z,-12.63
2022-12-01T20:44:01.221Z,-12.72
2022-12-01T20:46:35.190Z,-12.77
2022-12-01T20:49:03.881Z,-12.72
2022-12-01T20:51:33.555Z,-12.83
2022-12-01T20:54:26.725Z,-12.91
2022-12-01T20:56:50.177Z,-12.93
2022-12-01T20:59:18.506Z,-12.86
2022-12-01T21:01:48.185Z,-12.95
2022-12-01T21:04:16.962Z,-13.01
2022-12-01T21:06:45.587Z,-12.96
2022-12-01T21:09:15.109Z,-13.02
2022-12-01T21:12:04.326Z,-12.92
2022-12-01T21:14:37.858Z,-13.01
2022-12-01T21:17:13.850Z,-12.81
2022-12-01T21:19:52.412Z,-12.85
2022-12-01T21:22:20.744Z,-12.92
2022-12-01T21:24:51.867Z,-12.98
2022-12-01T21:27:20.408Z,-12.96
2022-12-01T21:29:49.839Z,-12.89
2022-12-01T21:32:21.083Z,-12.90
2022-12-01T21:34:50.408Z,-12.79
2022-12-01T21:37:22.361Z,-12.96
2022-12-01T21:39:51.229Z,-12.95
2022-12-01T21:42:21.564Z,-12.87
2022-12-01T21:44:50.941Z,-12.94
2022-12-01T21:47:22.754Z,-13.00
2022-12-01T21:49:54.170Z,-13.21
2022-12-01T21:52:25.176Z,-13.19
2022-12-01T21:54:53.501Z,-13.27
2022-12-01T21:57:42.803Z,-13.38
2022-12-01T22:00:29.071Z,-13.44
2022-12-01T22:03:17.644Z,-13.50
2022-12-01T22:06:06.959Z,-13.64
2022-12-01T22:08:38.536Z,-13.59
2022-12-01T22:11:11.877Z,-13.52
2022-12-01T22:13:44.268Z,-13.45
2022-12-01T22:16:17.989Z,-13.55
2022-12-01T22:18:51.031Z,-13.60
2022-12-01T22:21:38.687Z,-13.71
2022-12-01T22:24:22.788Z,-13.81
2022-12-01T22:26:53.228Z,-13.73
2022-12-01T22:29:29.033Z,-13.55
2022-12-01T22:32:38.693Z,-13.56
2022-12-01T22:35:28.487Z,-13.63
2022-12-01T22:38:01.744Z,-13.64
2022-12-01T22:40:37.931Z,-13.71
2022-12-01T22:43:23.174Z,-13.57
2022-12-01T22:46:03.066Z,-13.47
2022-12-01T22:48:35.917Z,-13.25
2022-12-01T22:51:17.710Z,-13.34
2022-12-01T22:53:46.981Z,-13.23
2022-12-01T22:56:28.369Z,-13.41
2022-12-01T22:58:56.995Z,-13.49
2022-12-01T23:01:29.085Z,-13.53
2022-12-01T23:04:14.886Z,-13.67
2022-12-01T23:06:55.453Z,-13.70
2022-12-01T23:09:25.511Z,-13.84
2022-12-01T23:11:57.718Z,-13.85
2022-12-01T23:14:25.992Z,-13.81
2022-12-01T23:17:01.341Z,-13.57
2022-12-01T23:19:29.826Z,-13.55
2022-12-01T23:21:59.384Z,-13.43
2022-12-01T23:24:32.331Z,-13.48
2022-12-01T23:27:01.979Z,-13.57
2022-12-01T23:29:31.101Z,-13.74
2022-12-01T23:31:59.380Z,-13.93
2022-12-01T23:34:27.720Z,-14.11
2022-12-01T23:36:56.107Z,-13.98
2022-12-01T23:39:30.868Z,-13.72
2022-12-01T23:41:59.421Z,-13.71
2022-12-01T23:44:37.509Z,-13.93
2022-12-01T23:47:13.293Z,-13.95
2022-12-01T23:49:41.560Z,-13.94
2022-12-01T23:52:12.432Z,-13.96
2022-12-01T23:54:42.056Z,-14.05
2022-12-01T23:57:13.545Z,-14.13
2022-12-01T23:59:41.792Z,-14.21
